sensor_id;sensor_type;location;lat;lon;timestamp;P1;durP1;ratioP1;P2;durP2;ratioP2
63975;SDS011;50167;47.958;21.780;2023-05-14T00:01:48;14.07;;;7.30;;
63975;SDS011;50167;47.958;21.780;2023-05-14T00:04:16;14.97;;;7.40;;
63975;SDS011;50167;47.958;21.780;2023-05-14T00:06:44;9.57;;;6.07;;
63975;SDS011;50167;47.958;21.780;2023-05-14T00:09:11;9.47;;;6.50;;
63975;SDS011;50167;47.958;21.780;2023-05-14T00:11:37;9.93;;;6.43;;
63975;SDS011;50167;47.958;21.780;2023-05-14T00:14:04;13.47;;;7.10;;
63975;SDS011;50167;47.958;21.780;2023-05-14T00:16:30;12.70;;;7.67;;
63975;SDS011;50167;47.958;21.780;2023-05-14T00:18:56;14.43;;;7.13;;
63975;SDS011;50167;47.958;21.780;2023-05-14T00:21:22;15.20;;;7.90;;
63975;SDS011;50167;47.958;21.780;2023-05-14T00:23:49;13.27;;;7.70;;
63975;SDS011;50167;47.958;21.780;2023-05-14T00:26:15;12.47;;;7.53;;
63975;SDS011;50167;47.958;21.780;2023-05-14T00:28:41;11.90;;;7.20;;
63975;SDS011;50167;47.958;21.780;2023-05-14T00:31:08;10.67;;;6.30;;
63975;SDS011;50167;47.958;21.780;2023-05-14T00:33:34;15.70;;;8.20;;
63975;SDS011;50167;47.958;21.780;2023-05-14T00:36:00;14.13;;;7.13;;
63975;SDS011;50167;47.958;21.780;2023-05-14T00:38:27;8.93;;;6.70;;
63975;SDS011;50167;47.958;21.780;2023-05-14T00:40:53;16.20;;;9.13;;
63975;SDS011;50167;47.958;21.780;2023-05-14T00:43:20;9.97;;;7.27;;
63975;SDS011;50167;47.958;21.780;2023-05-14T00:45:52;17.53;;;11.40;;
63975;SDS011;50167;47.958;21.780;2023-05-14T00:48:18;13.15;;;7.50;;
63975;SDS011;50167;47.958;21.780;2023-05-14T00:50:45;9.57;;;7.13;;
63975;SDS011;50167;47.958;21.780;2023-05-14T00:53:13;14.53;;;8.00;;
63975;SDS011;50167;47.958;21.780;2023-05-14T00:55:40;18.83;;;8.40;;
63975;SDS011;50167;47.958;21.780;2023-05-14T00:58:11;9.27;;;6.17;;
63975;SDS011;50167;47.958;21.780;2023-05-14T01:00:38;9.97;;;6.63;;
63975;SDS011;50167;47.958;21.780;2023-05-14T01:03:06;14.23;;;8.40;;
63975;SDS011;50167;47.958;21.780;2023-05-14T01:05:45;12.03;;;6.97;;
63975;SDS011;50167;47.958;21.780;2023-05-14T01:11:18;14.57;;;7.23;;
63975;SDS011;50167;47.958;21.780;2023-05-14T01:14:08;13.63;;;7.60;;
63975;SDS011;50167;47.958;21.780;2023-05-14T01:16:56;13.67;;;7.37;;
63975;SDS011;50167;47.958;21.780;2023-05-14T01:19:41;9.70;;;7.00;;
63975;SDS011;50167;47.958;21.780;2023-05-14T01:22:09;14.67;;;7.27;;
63975;SDS011;50167;47.958;21.780;2023-05-14T01:24:36;10.17;;;6.87;;
63975;SDS011;50167;47.958;21.780;2023-05-14T01:27:09;14.33;;;8.30;;
63975;SDS011;50167;47.958;21.780;2023-05-14T01:29:57;12.37;;;7.30;;
63975;SDS011;50167;47.958;21.780;2023-05-14T01:32:46;11.90;;;7.77;;
63975;SDS011;50167;47.958;21.780;2023-05-14T01:37:42;13.17;;;7.93;;
63975;SDS011;50167;47.958;21.780;2023-05-14T01:40:09;11.40;;;7.23;;
63975;SDS011;50167;47.958;21.780;2023-05-14T01:42:36;13.97;;;8.00;;
63975;SDS011;50167;47.958;21.780;2023-05-14T01:45:03;11.13;;;6.93;;
63975;SDS011;50167;47.958;21.780;2023-05-14T01:47:30;12.30;;;7.93;;
63975;SDS011;50167;47.958;21.780;2023-05-14T01:49:57;15.87;;;8.20;;
63975;SDS011;50167;47.958;21.780;2023-05-14T01:52:23;9.30;;;6.57;;
63975;SDS011;50167;47.958;21.780;2023-05-14T01:54:50;8.93;;;6.53;;
63975;SDS011;50167;47.958;21.780;2023-05-14T01:57:16;14.80;;;6.87;;
63975;SDS011;50167;47.958;21.780;2023-05-14T01:59:42;10.57;;;7.33;;
63975;SDS011;50167;47.958;21.780;2023-05-14T02:02:09;12.27;;;6.30;;
63975;SDS011;50167;47.958;21.780;2023-05-14T02:04:35;9.93;;;6.70;;
63975;SDS011;50167;47.958;21.780;2023-05-14T02:07:01;12.37;;;6.87;;
63975;SDS011;50167;47.958;21.780;2023-05-14T02:09:28;10.73;;;6.50;;
63975;SDS011;50167;47.958;21.780;2023-05-14T02:11:55;9.60;;;6.83;;
63975;SDS011;50167;47.958;21.780;2023-05-14T02:14:21;16.07;;;8.50;;
63975;SDS011;50167;47.958;21.780;2023-05-14T02:16:47;11.93;;;7.53;;
63975;SDS011;50167;47.958;21.780;2023-05-14T02:19:15;12.30;;;6.23;;
63975;SDS011;50167;47.958;21.780;2023-05-14T02:21:41;10.03;;;7.17;;
63975;SDS011;50167;47.958;21.780;2023-05-14T02:24:07;10.63;;;6.90;;
63975;SDS011;50167;47.958;21.780;2023-05-14T02:26:34;13.17;;;7.67;;
63975;SDS011;50167;47.958;21.780;2023-05-14T02:29:00;10.83;;;7.10;;
63975;SDS011;50167;47.958;21.780;2023-05-14T02:31:26;11.90;;;7.57;;
63975;SDS011;50167;47.958;21.780;2023-05-14T02:33:53;9.87;;;6.77;;
63975;SDS011;50167;47.958;21.780;2023-05-14T02:36:19;10.70;;;6.63;;
63975;SDS011;50167;47.958;21.780;2023-05-14T02:38:45;14.90;;;7.17;;
63975;SDS011;50167;47.958;21.780;2023-05-14T02:41:12;13.27;;;7.37;;
63975;SDS011;50167;47.958;21.780;2023-05-14T02:43:38;10.63;;;6.70;;
63975;SDS011;50167;47.958;21.780;2023-05-14T02:46:05;13.13;;;6.43;;
63975;SDS011;50167;47.958;21.780;2023-05-14T02:48:34;10.90;;;6.17;;
63975;SDS011;50167;47.958;21.780;2023-05-14T02:51:01;9.33;;;6.37;;
63975;SDS011;50167;47.958;21.780;2023-05-14T02:53:27;10.57;;;7.20;;
63975;SDS011;50167;47.958;21.780;2023-05-14T02:55:53;9.80;;;7.00;;
63975;SDS011;50167;47.958;21.780;2023-05-14T02:58:20;10.37;;;7.13;;
63975;SDS011;50167;47.958;21.780;2023-05-14T03:00:46;10.83;;;6.20;;
63975;SDS011;50167;47.958;21.780;2023-05-14T03:03:12;8.80;;;6.47;;
63975;SDS011;50167;47.958;21.780;2023-05-14T03:05:41;10.60;;;5.93;;
63975;SDS011;50167;47.958;21.780;2023-05-14T03:08:07;12.57;;;6.60;;
63975;SDS011;50167;47.958;21.780;2023-05-14T03:10:33;11.87;;;6.53;;
63975;SDS011;50167;47.958;21.780;2023-05-14T03:13:00;8.20;;;6.03;;
63975;SDS011;50167;47.958;21.780;2023-05-14T03:15:26;7.70;;;5.27;;
63975;SDS011;50167;47.958;21.780;2023-05-14T03:17:52;10.53;;;7.10;;
63975;SDS011;50167;47.958;21.780;2023-05-14T03:20:19;12.43;;;7.70;;
63975;SDS011;50167;47.958;21.780;2023-05-14T03:22:45;8.10;;;6.17;;
63975;SDS011;50167;47.958;21.780;2023-05-14T03:25:12;8.67;;;6.57;;
63975;SDS011;50167;47.958;21.780;2023-05-14T03:27:38;8.07;;;5.27;;
63975;SDS011;50167;47.958;21.780;2023-05-14T03:30:05;7.90;;;6.40;;
63975;SDS011;50167;47.958;21.780;2023-05-14T03:32:32;11.60;;;5.50;;
63975;SDS011;50167;47.958;21.780;2023-05-14T03:34:58;7.90;;;6.03;;
63975;SDS011;50167;47.958;21.780;2023-05-14T03:37:25;13.57;;;6.67;;
63975;SDS011;50167;47.958;21.780;2023-05-14T03:39:53;12.63;;;6.83;;
63975;SDS011;50167;47.958;21.780;2023-05-14T03:42:19;8.87;;;6.03;;
63975;SDS011;50167;47.958;21.780;2023-05-14T03:44:45;9.53;;;6.60;;
63975;SDS011;50167;47.958;21.780;2023-05-14T03:47:11;11.33;;;6.47;;
63975;SDS011;50167;47.958;21.780;2023-05-14T03:49:37;10.03;;;6.60;;
63975;SDS011;50167;47.958;21.780;2023-05-14T03:52:04;17.93;;;7.53;;
63975;SDS011;50167;47.958;21.780;2023-05-14T03:54:30;10.03;;;5.80;;
63975;SDS011;50167;47.958;21.780;2023-05-14T03:56:56;12.00;;;6.60;;
63975;SDS011;50167;47.958;21.780;2023-05-14T03:59:23;10.50;;;7.03;;
63975;SDS011;50167;47.958;21.780;2023-05-14T04:01:49;11.90;;;7.13;;
63975;SDS011;50167;47.958;21.780;2023-05-14T04:04:15;9.47;;;6.30;;
63975;SDS011;50167;47.958;21.780;2023-05-14T04:06:41;11.33;;;7.03;;
63975;SDS011;50167;47.958;21.780;2023-05-14T04:09:07;9.97;;;6.90;;
63975;SDS011;50167;47.958;21.780;2023-05-14T04:11:35;10.63;;;7.17;;
63975;SDS011;50167;47.958;21.780;2023-05-14T04:14:02;14.47;;;7.77;;
63975;SDS011;50167;47.958;21.780;2023-05-14T04:16:28;9.07;;;6.13;;
63975;SDS011;50167;47.958;21.780;2023-05-14T04:18:54;9.07;;;6.20;;
63975;SDS011;50167;47.958;21.780;2023-05-14T04:21:20;9.67;;;5.90;;
63975;SDS011;50167;47.958;21.780;2023-05-14T04:23:47;9.63;;;6.53;;
63975;SDS011;50167;47.958;21.780;2023-05-14T04:26:14;9.17;;;6.10;;
63975;SDS011;50167;47.958;21.780;2023-05-14T04:28:40;13.17;;;6.60;;
63975;SDS011;50167;47.958;21.780;2023-05-14T04:31:06;9.13;;;6.23;;
63975;SDS011;50167;47.958;21.780;2023-05-14T04:33:32;9.77;;;6.43;;
63975;SDS011;50167;47.958;21.780;2023-05-14T04:35:59;10.67;;;6.67;;
63975;SDS011;50167;47.958;21.780;2023-05-14T04:38:25;7.27;;;5.50;;
63975;SDS011;50167;47.958;21.780;2023-05-14T04:40:52;8.13;;;6.13;;
63975;SDS011;50167;47.958;21.780;2023-05-14T04:43:19;10.63;;;6.53;;
63975;SDS011;50167;47.958;21.780;2023-05-14T04:45:45;11.47;;;6.57;;
63975;SDS011;50167;47.958;21.780;2023-05-14T04:48:12;9.60;;;6.43;;
63975;SDS011;50167;47.958;21.780;2023-05-14T04:50:38;9.93;;;6.50;;
63975;SDS011;50167;47.958;21.780;2023-05-14T04:53:04;8.10;;;5.87;;
63975;SDS011;50167;47.958;21.780;2023-05-14T04:55:30;10.07;;;7.00;;
63975;SDS011;50167;47.958;21.780;2023-05-14T04:57:57;11.80;;;6.37;;
63975;SDS011;50167;47.958;21.780;2023-05-14T05:00:23;11.00;;;6.67;;
63975;SDS011;50167;47.958;21.780;2023-05-14T05:02:49;8.03;;;5.90;;
63975;SDS011;50167;47.958;21.780;2023-05-14T05:05:16;7.97;;;6.00;;
63975;SDS011;50167;47.958;21.780;2023-05-14T05:07:42;11.87;;;6.37;;
63975;SDS011;50167;47.958;21.780;2023-05-14T05:10:08;9.27;;;6.27;;
63975;SDS011;50167;47.958;21.780;2023-05-14T05:12:35;9.50;;;5.43;;
63975;SDS011;50167;47.958;21.780;2023-05-14T05:15:02;9.00;;;5.83;;
63975;SDS011;50167;47.958;21.780;2023-05-14T05:17:29;7.87;;;5.40;;
63975;SDS011;50167;47.958;21.780;2023-05-14T05:19:55;10.43;;;5.07;;
63975;SDS011;50167;47.958;21.780;2023-05-14T05:22:22;17.50;;;6.50;;
63975;SDS011;50167;47.958;21.780;2023-05-14T05:24:48;8.37;;;5.80;;
63975;SDS011;50167;47.958;21.780;2023-05-14T05:27:14;13.20;;;5.57;;
63975;SDS011;50167;47.958;21.780;2023-05-14T05:29:41;10.30;;;7.30;;
63975;SDS011;50167;47.958;21.780;2023-05-14T05:32:11;10.85;;;6.03;;
63975;SDS011;50167;47.958;21.780;2023-05-14T05:34:37;8.80;;;5.67;;
63975;SDS011;50167;47.958;21.780;2023-05-14T05:37:04;7.40;;;5.43;;
63975;SDS011;50167;47.958;21.780;2023-05-14T05:39:30;7.93;;;5.47;;
63975;SDS011;50167;47.958;21.780;2023-05-14T05:41:58;6.83;;;4.83;;
63975;SDS011;50167;47.958;21.780;2023-05-14T05:44:25;10.33;;;5.57;;
63975;SDS011;50167;47.958;21.780;2023-05-14T05:46:51;6.90;;;5.17;;
63975;SDS011;50167;47.958;21.780;2023-05-14T05:49:20;9.13;;;5.43;;
63975;SDS011;50167;47.958;21.780;2023-05-14T05:51:46;7.07;;;5.60;;
63975;SDS011;50167;47.958;21.780;2023-05-14T05:54:12;17.03;;;6.00;;
63975;SDS011;50167;47.958;21.780;2023-05-14T05:56:39;10.63;;;4.70;;
63975;SDS011;50167;47.958;21.780;2023-05-14T05:59:05;12.30;;;5.70;;
63975;SDS011;50167;47.958;21.780;2023-05-14T06:01:31;5.97;;;4.07;;
63975;SDS011;50167;47.958;21.780;2023-05-14T06:03:58;4.60;;;4.03;;
63975;SDS011;50167;47.958;21.780;2023-05-14T06:06:24;8.83;;;3.93;;
63975;SDS011;50167;47.958;21.780;2023-05-14T06:08:50;7.87;;;4.00;;
63975;SDS011;50167;47.958;21.780;2023-05-14T06:11:16;5.40;;;3.97;;
63975;SDS011;50167;47.958;21.780;2023-05-14T06:13:43;11.83;;;4.57;;
63975;SDS011;50167;47.958;21.780;2023-05-14T06:16:09;10.47;;;4.67;;
63975;SDS011;50167;47.958;21.780;2023-05-14T06:18:35;10.83;;;3.43;;
63975;SDS011;50167;47.958;21.780;2023-05-14T06:21:02;5.50;;;4.00;;
63975;SDS011;50167;47.958;21.780;2023-05-14T06:23:29;8.13;;;4.23;;
63975;SDS011;50167;47.958;21.780;2023-05-14T06:25:55;5.77;;;4.00;;
63975;SDS011;50167;47.958;21.780;2023-05-14T06:28:21;12.07;;;3.97;;
63975;SDS011;50167;47.958;21.780;2023-05-14T06:30:50;6.90;;;4.30;;
63975;SDS011;50167;47.958;21.780;2023-05-14T06:33:18;10.53;;;4.10;;
63975;SDS011;50167;47.958;21.780;2023-05-14T06:35:47;12.43;;;4.30;;
63975;SDS011;50167;47.958;21.780;2023-05-14T06:38:13;7.63;;;4.37;;
63975;SDS011;50167;47.958;21.780;2023-05-14T06:40:39;6.23;;;3.90;;
63975;SDS011;50167;47.958;21.780;2023-05-14T06:43:06;11.77;;;4.43;;
63975;SDS011;50167;47.958;21.780;2023-05-14T06:45:32;7.27;;;4.27;;
63975;SDS011;50167;47.958;21.780;2023-05-14T06:47:58;10.83;;;4.40;;
63975;SDS011;50167;47.958;21.780;2023-05-14T06:50:24;7.00;;;4.00;;
63975;SDS011;50167;47.958;21.780;2023-05-14T06:52:50;9.90;;;4.67;;
63975;SDS011;50167;47.958;21.780;2023-05-14T06:55:16;6.77;;;4.20;;
63975;SDS011;50167;47.958;21.780;2023-05-14T06:57:43;9.10;;;4.10;;
63975;SDS011;50167;47.958;21.780;2023-05-14T07:00:09;5.67;;;3.37;;
63975;SDS011;50167;47.958;21.780;2023-05-14T07:02:36;5.97;;;3.70;;
63975;SDS011;50167;47.958;21.780;2023-05-14T07:05:03;5.53;;;3.40;;
63975;SDS011;50167;47.958;21.780;2023-05-14T07:07:29;7.10;;;4.00;;
63975;SDS011;50167;47.958;21.780;2023-05-14T07:09:55;9.33;;;4.00;;
63975;SDS011;50167;47.958;21.780;2023-05-14T07:12:22;8.57;;;3.87;;
63975;SDS011;50167;47.958;21.780;2023-05-14T07:14:48;8.90;;;3.90;;
63975;SDS011;50167;47.958;21.780;2023-05-14T07:17:15;6.37;;;3.63;;
63975;SDS011;50167;47.958;21.780;2023-05-14T07:19:42;5.10;;;3.40;;
63975;SDS011;50167;47.958;21.780;2023-05-14T07:22:09;8.00;;;4.47;;
63975;SDS011;50167;47.958;21.780;2023-05-14T07:24:35;8.37;;;3.40;;
63975;SDS011;50167;47.958;21.780;2023-05-14T07:27:01;4.87;;;3.43;;
63975;SDS011;50167;47.958;21.780;2023-05-14T07:29:28;7.77;;;4.47;;
63975;SDS011;50167;47.958;21.780;2023-05-14T07:31:55;4.47;;;2.80;;
63975;SDS011;50167;47.958;21.780;2023-05-14T07:34:21;5.80;;;3.65;;
63975;SDS011;50167;47.958;21.780;2023-05-14T07:36:47;6.95;;;3.17;;
63975;SDS011;50167;47.958;21.780;2023-05-14T07:39:13;18.67;;;4.10;;
63975;SDS011;50167;47.958;21.780;2023-05-14T07:41:40;4.05;;;3.30;;
63975;SDS011;50167;47.958;21.780;2023-05-14T07:47:56;6.67;;;2.85;;
63975;SDS011;50167;47.958;21.780;2023-05-14T07:50:23;8.65;;;3.35;;
63975;SDS011;50167;47.958;21.780;2023-05-14T07:52:50;6.92;;;2.85;;
63975;SDS011;50167;47.958;21.780;2023-05-14T07:55:16;7.97;;;3.70;;
63975;SDS011;50167;47.958;21.780;2023-05-14T07:57:43;3.00;;;2.67;;
63975;SDS011;50167;47.958;21.780;2023-05-14T08:00:10;7.12;;;3.30;;
63975;SDS011;50167;47.958;21.780;2023-05-14T08:02:37;5.42;;;3.55;;
63975;SDS011;50167;47.958;21.780;2023-05-14T08:05:04;5.47;;;3.15;;
63975;SDS011;50167;47.958;21.780;2023-05-14T08:07:31;5.67;;;2.40;;
63975;SDS011;50167;47.958;21.780;2023-05-14T08:09:58;4.35;;;2.62;;
63975;SDS011;50167;47.958;21.780;2023-05-14T08:12:24;4.67;;;2.62;;
63975;SDS011;50167;47.958;21.780;2023-05-14T08:14:51;6.00;;;3.05;;
63975;SDS011;50167;47.958;21.780;2023-05-14T08:17:17;6.05;;;3.17;;
63975;SDS011;50167;47.958;21.780;2023-05-14T08:19:44;4.58;;;2.90;;
63975;SDS011;50167;47.958;21.780;2023-05-14T08:22:11;9.60;;;2.80;;
63975;SDS011;50167;47.958;21.780;2023-05-14T08:24:37;6.20;;;2.50;;
63975;SDS011;50167;47.958;21.780;2023-05-14T08:27:03;4.78;;;2.77;;
63975;SDS011;50167;47.958;21.780;2023-05-14T08:29:30;4.50;;;2.62;;
63975;SDS011;50167;47.958;21.780;2023-05-14T08:31:57;7.42;;;2.85;;
63975;SDS011;50167;47.958;21.780;2023-05-14T08:34:23;3.52;;;2.70;;
63975;SDS011;50167;47.958;21.780;2023-05-14T08:36:50;4.75;;;2.58;;
63975;SDS011;50167;47.958;21.780;2023-05-14T08:39:16;3.83;;;2.77;;
63975;SDS011;50167;47.958;21.780;2023-05-14T08:41:42;6.60;;;2.60;;
63975;SDS011;50167;47.958;21.780;2023-05-14T08:44:18;7.47;;;2.52;;
63975;SDS011;50167;47.958;21.780;2023-05-14T08:46:45;7.83;;;2.50;;
63975;SDS011;50167;47.958;21.780;2023-05-14T08:52:00;7.78;;;2.30;;
63975;SDS011;50167;47.958;21.780;2023-05-14T08:54:29;5.78;;;2.65;;
63975;SDS011;50167;47.958;21.780;2023-05-14T08:56:56;6.17;;;2.60;;
63975;SDS011;50167;47.958;21.780;2023-05-14T08:59:23;2.45;;;2.22;;
63975;SDS011;50167;47.958;21.780;2023-05-14T09:01:51;4.70;;;2.60;;
63975;SDS011;50167;47.958;21.780;2023-05-14T09:04:22;2.75;;;1.77;;
63975;SDS011;50167;47.958;21.780;2023-05-14T09:06:50;6.92;;;2.40;;
63975;SDS011;50167;47.958;21.780;2023-05-14T09:09:21;6.33;;;2.80;;
63975;SDS011;50167;47.958;21.780;2023-05-14T09:11:48;3.47;;;2.02;;
63975;SDS011;50167;47.958;21.780;2023-05-14T09:14:16;5.53;;;2.10;;
63975;SDS011;50167;47.958;21.780;2023-05-14T09:16:46;7.00;;;2.62;;
63975;SDS011;50167;47.958;21.780;2023-05-14T09:19:14;4.40;;;2.22;;
63975;SDS011;50167;47.958;21.780;2023-05-14T09:21:46;6.45;;;2.90;;
63975;SDS011;50167;47.958;21.780;2023-05-14T09:24:26;13.93;;;2.62;;
63975;SDS011;50167;47.958;21.780;2023-05-14T09:26:56;6.03;;;2.35;;
63975;SDS011;50167;47.958;21.780;2023-05-14T09:29:27;5.00;;;1.92;;
63975;SDS011;50167;47.958;21.780;2023-05-14T09:31:55;3.87;;;2.37;;
63975;SDS011;50167;47.958;21.780;2023-05-14T09:34:26;10.05;;;2.62;;
63975;SDS011;50167;47.958;21.780;2023-05-14T09:37:03;3.50;;;2.00;;
63975;SDS011;50167;47.958;21.780;2023-05-14T09:39:32;3.95;;;2.30;;
63975;SDS011;50167;47.958;21.780;2023-05-14T09:42:00;4.42;;;2.15;;
63975;SDS011;50167;47.958;21.780;2023-05-14T09:44:27;9.23;;;3.00;;
63975;SDS011;50167;47.958;21.780;2023-05-14T09:46:54;4.22;;;2.37;;
63975;SDS011;50167;47.958;21.780;2023-05-14T09:49:21;3.52;;;1.80;;
63975;SDS011;50167;47.958;21.780;2023-05-14T09:51:47;6.53;;;2.15;;
63975;SDS011;50167;47.958;21.780;2023-05-14T09:54:14;5.45;;;2.40;;
63975;SDS011;50167;47.958;21.780;2023-05-14T09:56:43;2.60;;;1.77;;
63975;SDS011;50167;47.958;21.780;2023-05-14T09:59:09;5.37;;;1.75;;
63975;SDS011;50167;47.958;21.780;2023-05-14T10:01:36;6.90;;;2.50;;
63975;SDS011;50167;47.958;21.780;2023-05-14T10:04:06;2.90;;;1.90;;
63975;SDS011;50167;47.958;21.780;2023-05-14T10:06:33;4.25;;;2.10;;
63975;SDS011;50167;47.958;21.780;2023-05-14T10:09:04;10.10;;;2.47;;
63975;SDS011;50167;47.958;21.780;2023-05-14T10:11:36;3.15;;;1.67;;
63975;SDS011;50167;47.958;21.780;2023-05-14T10:14:07;5.28;;;1.80;;
63975;SDS011;50167;47.958;21.780;2023-05-14T10:16:43;12.33;;;8.30;;
63975;SDS011;50167;47.958;21.780;2023-05-14T10:19:19;12.33;;;2.10;;
63975;SDS011;50167;47.958;21.780;2023-05-14T10:21:50;5.05;;;2.10;;
63975;SDS011;50167;47.958;21.780;2023-05-14T10:24:19;6.97;;;2.02;;
63975;SDS011;50167;47.958;21.780;2023-05-14T10:26:46;5.20;;;1.70;;
63975;SDS011;50167;47.958;21.780;2023-05-14T10:29:13;3.55;;;2.30;;
63975;SDS011;50167;47.958;21.780;2023-05-14T10:37:11;4.20;;;1.87;;
63975;SDS011;50167;47.958;21.780;2023-05-14T10:39:46;4.22;;;1.98;;
63975;SDS011;50167;47.958;21.780;2023-05-14T10:42:36;2.92;;;1.87;;
63975;SDS011;50167;47.958;21.780;2023-05-14T10:45:06;4.45;;;2.20;;
63975;SDS011;50167;47.958;21.780;2023-05-14T10:47:35;8.93;;;2.57;;
63975;SDS011;50167;47.958;21.780;2023-05-14T10:50:08;8.93;;;1.67;;
63975;SDS011;50167;47.958;21.780;2023-05-14T10:52:33;3.75;;;1.90;;
63975;SDS011;50167;47.958;21.780;2023-05-14T10:55:01;3.22;;;1.92;;
63975;SDS011;50167;47.958;21.780;2023-05-14T10:57:37;4.42;;;2.22;;
63975;SDS011;50167;47.958;21.780;2023-05-14T11:00:06;4.70;;;1.77;;
63975;SDS011;50167;47.958;21.780;2023-05-14T11:02:35;5.95;;;2.25;;
63975;SDS011;50167;47.958;21.780;2023-05-14T11:05:07;7.37;;;2.52;;
63975;SDS011;50167;47.958;21.780;2023-05-14T11:07:48;3.98;;;2.17;;
63975;SDS011;50167;47.958;21.780;2023-05-14T11:10:14;6.27;;;2.07;;
63975;SDS011;50167;47.958;21.780;2023-05-14T11:12:48;4.87;;;2.23;;
63975;SDS011;50167;47.958;21.780;2023-05-14T11:15:24;7.85;;;5.00;;
63975;SDS011;50167;47.958;21.780;2023-05-14T11:17:50;12.78;;;7.85;;
63975;SDS011;50167;47.958;21.780;2023-05-14T11:20:17;8.65;;;3.90;;
63975;SDS011;50167;47.958;21.780;2023-05-14T11:22:45;7.33;;;3.83;;
63975;SDS011;50167;47.958;21.780;2023-05-14T11:25:13;3.70;;;2.02;;
63975;SDS011;50167;47.958;21.780;2023-05-14T11:27:41;5.35;;;2.37;;
63975;SDS011;50167;47.958;21.780;2023-05-14T11:30:16;2.47;;;2.27;;
63975;SDS011;50167;47.958;21.780;2023-05-14T11:32:44;6.67;;;2.85;;
63975;SDS011;50167;47.958;21.780;2023-05-14T11:35:13;2.85;;;1.90;;
63975;SDS011;50167;47.958;21.780;2023-05-14T11:37:40;4.30;;;2.10;;
63975;SDS011;50167;47.958;21.780;2023-05-14T11:40:07;5.75;;;2.30;;
63975;SDS011;50167;47.958;21.780;2023-05-14T11:42:42;14.03;;;7.55;;
63975;SDS011;50167;47.958;21.780;2023-05-14T11:45:12;7.62;;;3.77;;
63975;SDS011;50167;47.958;21.780;2023-05-14T11:50:07;6.55;;;1.98;;
63975;SDS011;50167;47.958;21.780;2023-05-14T11:52:38;8.13;;;2.92;;
63975;SDS011;50167;47.958;21.780;2023-05-14T11:55:09;22.48;;;13.70;;
63975;SDS011;50167;47.958;21.780;2023-05-14T11:57:37;10.00;;;4.90;;
63975;SDS011;50167;47.958;21.780;2023-05-14T12:00:06;7.80;;;5.37;;
63975;SDS011;50167;47.958;21.780;2023-05-14T12:02:36;5.50;;;3.83;;
63975;SDS011;50167;47.958;21.780;2023-05-14T12:05:03;7.58;;;2.40;;
63975;SDS011;50167;47.958;21.780;2023-05-14T12:11:21;17.17;;;9.80;;
63975;SDS011;50167;47.958;21.780;2023-05-14T12:13:48;9.23;;;4.42;;
63975;SDS011;50167;47.958;21.780;2023-05-14T12:16:14;5.20;;;2.87;;
63975;SDS011;50167;47.958;21.780;2023-05-14T12:18:41;7.70;;;4.17;;
63975;SDS011;50167;47.958;21.780;2023-05-14T12:21:08;5.03;;;1.98;;
63975;SDS011;50167;47.958;21.780;2023-05-14T12:23:37;5.95;;;2.30;;
63975;SDS011;50167;47.958;21.780;2023-05-14T12:26:04;3.70;;;1.80;;
63975;SDS011;50167;47.958;21.780;2023-05-14T12:28:33;4.00;;;2.15;;
63975;SDS011;50167;47.958;21.780;2023-05-14T12:31:00;3.20;;;2.05;;
63975;SDS011;50167;47.958;21.780;2023-05-14T12:33:26;8.23;;;2.35;;
63975;SDS011;50167;47.958;21.780;2023-05-14T12:35:53;4.30;;;2.62;;
63975;SDS011;50167;47.958;21.780;2023-05-14T12:38:27;3.65;;;2.27;;
63975;SDS011;50167;47.958;21.780;2023-05-14T12:40:56;5.85;;;2.12;;
63975;SDS011;50167;47.958;21.780;2023-05-14T12:43:22;2.40;;;2.15;;
63975;SDS011;50167;47.958;21.780;2023-05-14T12:45:48;2.75;;;1.72;;
63975;SDS011;50167;47.958;21.780;2023-05-14T12:48:14;3.50;;;1.92;;
63975;SDS011;50167;47.958;21.780;2023-05-14T12:50:41;2.87;;;1.65;;
63975;SDS011;50167;47.958;21.780;2023-05-14T12:53:07;8.05;;;2.85;;
63975;SDS011;50167;47.958;21.780;2023-05-14T12:55:33;5.67;;;2.15;;
63975;SDS011;50167;47.958;21.780;2023-05-14T12:58:00;4.05;;;1.70;;
63975;SDS011;50167;47.958;21.780;2023-05-14T13:00:26;7.00;;;2.17;;
63975;SDS011;50167;47.958;21.780;2023-05-14T13:02:52;2.58;;;1.82;;
63975;SDS011;50167;47.958;21.780;2023-05-14T13:05:18;2.52;;;2.27;;
63975;SDS011;50167;47.958;21.780;2023-05-14T13:07:44;3.50;;;1.87;;
63975;SDS011;50167;47.958;21.780;2023-05-14T13:10:11;6.28;;;2.00;;
63975;SDS011;50167;47.958;21.780;2023-05-14T13:12:37;4.22;;;1.92;;
63975;SDS011;50167;47.958;21.780;2023-05-14T13:15:12;4.17;;;2.20;;
63975;SDS011;50167;47.958;21.780;2023-05-14T13:17:55;3.22;;;1.82;;
63975;SDS011;50167;47.958;21.780;2023-05-14T13:20:22;4.53;;;1.45;;
63975;SDS011;50167;47.958;21.780;2023-05-14T13:22:50;3.87;;;1.70;;
63975;SDS011;50167;47.958;21.780;2023-05-14T13:25:16;3.42;;;1.62;;
63975;SDS011;50167;47.958;21.780;2023-05-14T13:27:42;7.45;;;2.30;;
63975;SDS011;50167;47.958;21.780;2023-05-14T13:30:09;2.90;;;1.90;;
63975;SDS011;50167;47.958;21.780;2023-05-14T13:32:36;3.20;;;1.90;;
63975;SDS011;50167;47.958;21.780;2023-05-14T13:35:03;6.00;;;1.85;;
63975;SDS011;50167;47.958;21.780;2023-05-14T13:37:29;10.93;;;2.35;;
63975;SDS011;50167;47.958;21.780;2023-05-14T13:39:56;4.75;;;2.12;;
63975;SDS011;50167;47.958;21.780;2023-05-14T13:42:22;4.25;;;1.90;;
63975;SDS011;50167;47.958;21.780;2023-05-14T13:44:48;3.35;;;2.50;;
63975;SDS011;50167;47.958;21.780;2023-05-14T13:47:15;7.83;;;3.00;;
63975;SDS011;50167;47.958;21.780;2023-05-14T13:49:41;5.55;;;3.30;;
63975;SDS011;50167;47.958;21.780;2023-05-14T13:52:07;8.48;;;2.40;;
63975;SDS011;50167;47.958;21.780;2023-05-14T13:54:33;3.62;;;2.35;;
63975;SDS011;50167;47.958;21.780;2023-05-14T13:57:00;2.50;;;2.22;;
63975;SDS011;50167;47.958;21.780;2023-05-14T13:59:26;4.95;;;2.87;;
63975;SDS011;50167;47.958;21.780;2023-05-14T14:01:52;5.22;;;3.15;;
63975;SDS011;50167;47.958;21.780;2023-05-14T14:04:18;5.60;;;3.30;;
63975;SDS011;50167;47.958;21.780;2023-05-14T14:06:45;5.20;;;3.43;;
63975;SDS011;50167;47.958;21.780;2023-05-14T14:09:11;7.47;;;3.03;;
63975;SDS011;50167;47.958;21.780;2023-05-14T14:11:38;7.83;;;3.27;;
63975;SDS011;50167;47.958;21.780;2023-05-14T14:14:05;6.00;;;3.07;;
63975;SDS011;50167;47.958;21.780;2023-05-14T14:16:31;5.67;;;3.00;;
63975;SDS011;50167;47.958;21.780;2023-05-14T14:18:57;7.07;;;3.17;;
63975;SDS011;50167;47.958;21.780;2023-05-14T14:21:23;6.80;;;2.43;;
63975;SDS011;50167;47.958;21.780;2023-05-14T14:23:50;6.53;;;3.47;;
63975;SDS011;50167;47.958;21.780;2023-05-14T14:26:16;4.43;;;2.63;;
63975;SDS011;50167;47.958;21.780;2023-05-14T14:28:42;4.67;;;2.70;;
63975;SDS011;50167;47.958;21.780;2023-05-14T14:31:09;3.47;;;2.77;;
63975;SDS011;50167;47.958;21.780;2023-05-14T14:33:35;3.40;;;2.80;;
63975;SDS011;50167;47.958;21.780;2023-05-14T14:36:02;9.80;;;3.03;;
63975;SDS011;50167;47.958;21.780;2023-05-14T14:38:28;9.83;;;2.73;;
63975;SDS011;50167;47.958;21.780;2023-05-14T14:40:54;5.50;;;2.73;;
63975;SDS011;50167;47.958;21.780;2023-05-14T14:43:22;6.37;;;3.03;;
63975;SDS011;50167;47.958;21.780;2023-05-14T14:45:49;8.27;;;3.50;;
63975;SDS011;50167;47.958;21.780;2023-05-14T14:48:27;4.97;;;3.07;;
63975;SDS011;50167;47.958;21.780;2023-05-14T14:51:00;6.60;;;3.80;;
63975;SDS011;50167;47.958;21.780;2023-05-14T14:53:26;7.50;;;5.07;;
63975;SDS011;50167;47.958;21.780;2023-05-14T14:55:53;13.80;;;5.57;;
63975;SDS011;50167;47.958;21.780;2023-05-14T14:58:19;9.60;;;5.70;;